sensor_id;sensor_type;location;lat;lon;timestamp;pressure;altitude;pressure_sealevel;temperature;humidity
19286;BME280;9776;50.798;6.430;2022-08-01T00:00:21;100276.13;;;23.31;55.74
19286;BME280;9776;50.798;6.430;2022-08-01T00:02:48;100269.91;;;23.31;55.83
19286;BME280;9776;50.798;6.430;2022-08-01T00:05:15;100276.94;;;23.32;55.81
19286;BME280;9776;50.798;6.430;2022-08-01T00:07:43;100271.31;;;23.33;55.81
19286;BME280;9776;50.798;6.430;2022-08-01T00:10:12;100271.78;;;23.30;55.91
19286;BME280;9776;50.798;6.430;2022-08-01T00:12:40;100274.13;;;23.27;56.17
19286;BME280;9776;50.798;6.430;2022-08-01T00:15:09;100278.47;;;23.28;56.09
19286;BME280;9776;50.798;6.430;2022-08-01T00:17:36;100282.56;;;23.30;56.15
19286;BME280;9776;50.798;6.430;2022-08-01T00:20:06;100281.72;;;23.30;56.11
19286;BME280;9776;50.798;6.430;2022-08-01T00:22:33;100283.28;;;23.26;56.49
19286;BME280;9776;50.798;6.430;2022-08-01T00:25:02;100282.66;;;23.12;56.93
19286;BME280;9776;50.798;6.430;2022-08-01T00:27:30;100281.84;;;23.00;57.26
19286;BME280;9776;50.798;6.430;2022-08-01T00:29:57;100278.88;;;22.90;57.88
19286;BME280;9776;50.798;6.430;2022-08-01T00:32:23;100283.88;;;22.86;58.29
19286;BME280;9776;50.798;6.430;2022-08-01T00:34:50;100278.50;;;22.86;58.24
19286;BME280;9776;50.798;6.430;2022-08-01T00:37:17;100278.28;;;22.88;58.26
19286;BME280;9776;50.798;6.430;2022-08-01T00:39:44;100279.13;;;22.88;58.66
19286;BME280;9776;50.798;6.430;2022-08-01T00:42:13;100274.78;;;22.87;58.94
19286;BME280;9776;50.798;6.430;2022-08-01T00:44:40;100276.88;;;22.85;58.95
19286;BME280;9776;50.798;6.430;2022-08-01T00:47:07;100277.34;;;22.82;59.14
19286;BME280;9776;50.798;6.430;2022-08-01T00:49:34;100279.41;;;22.80;59.27
19286;BME280;9776;50.798;6.430;2022-08-01T00:52:02;100277.56;;;22.81;59.56
19286;BME280;9776;50.798;6.430;2022-08-01T00:54:29;100281.41;;;22.73;59.54
19286;BME280;9776;50.798;6.430;2022-08-01T00:56:56;100281.63;;;22.72;59.84
19286;BME280;9776;50.798;6.430;2022-08-01T00:59:26;100282.00;;;22.75;59.89
19286;BME280;9776;50.798;6.430;2022-08-01T01:01:53;100275.44;;;22.71;60.00
19286;BME280;9776;50.798;6.430;2022-08-01T01:04:23;100274.63;;;22.71;59.72
19286;BME280;9776;50.798;6.430;2022-08-01T01:07:02;100288.66;;;22.73;60.13
19286;BME280;9776;50.798;6.430;2022-08-01T01:09:36;100287.00;;;22.72;60.59
19286;BME280;9776;50.798;6.430;2022-08-01T01:12:13;100290.31;;;22.74;60.69
19286;BME280;9776;50.798;6.430;2022-08-01T01:14:51;100294.88;;;22.73;60.98
19286;BME280;9776;50.798;6.430;2022-08-01T01:17:30;100281.63;;;22.72;61.32
19286;BME280;9776;50.798;6.430;2022-08-01T01:20:00;100284.31;;;22.72;61.53
19286;BME280;9776;50.798;6.430;2022-08-01T01:22:38;100279.63;;;22.67;61.78
19286;BME280;9776;50.798;6.430;2022-08-01T01:25:17;100280.31;;;22.63;61.84
19286;BME280;9776;50.798;6.430;2022-08-01T01:27:57;100278.53;;;22.56;61.99
19286;BME280;9776;50.798;6.430;2022-08-01T01:30:30;100279.78;;;22.54;62.40
19286;BME280;9776;50.798;6.430;2022-08-01T01:33:01;100278.97;;;22.53;62.45
19286;BME280;9776;50.798;6.430;2022-08-01T01:35:31;100283.75;;;22.51;62.58
19286;BME280;9776;50.798;6.430;2022-08-01T01:38:01;100279.88;;;22.47;62.71
19286;BME280;9776;50.798;6.430;2022-08-01T01:40:31;100284.81;;;22.50;62.56
19286;BME280;9776;50.798;6.430;2022-08-01T01:42:59;100289.13;;;22.51;62.41
19286;BME280;9776;50.798;6.430;2022-08-01T01:45:27;100286.88;;;22.48;62.67
19286;BME280;9776;50.798;6.430;2022-08-01T01:47:56;100292.50;;;22.47;62.57
19286;BME280;9776;50.798;6.430;2022-08-01T01:50:26;100287.00;;;22.42;62.67
19286;BME280;9776;50.798;6.430;2022-08-01T01:52:54;100289.00;;;22.46;62.54
19286;BME280;9776;50.798;6.430;2022-08-01T01:55:23;100285.03;;;22.49;62.41
19286;BME280;9776;50.798;6.430;2022-08-01T01:57:52;100287.34;;;22.45;62.52
19286;BME280;9776;50.798;6.430;2022-08-01T02:00:21;100289.81;;;22.47;62.39
19286;BME280;9776;50.798;6.430;2022-08-01T02:02:49;100286.53;;;22.45;62.63
19286;BME280;9776;50.798;6.430;2022-08-01T02:05:18;100284.06;;;22.43;62.47
19286;BME280;9776;50.798;6.430;2022-08-01T02:07:45;100275.78;;;22.45;62.48
19286;BME280;9776;50.798;6.430;2022-08-01T02:10:15;100271.56;;;22.49;62.38
19286;BME280;9776;50.798;6.430;2022-08-01T02:12:44;100269.13;;;22.47;62.27
19286;BME280;9776;50.798;6.430;2022-08-01T02:15:14;100269.13;;;22.47;62.58
19286;BME280;9776;50.798;6.430;2022-08-01T02:17:44;100265.81;;;22.45;62.40
19286;BME280;9776;50.798;6.430;2022-08-01T02:20:12;100269.34;;;22.46;62.69
19286;BME280;9776;50.798;6.430;2022-08-01T02:22:44;100267.34;;;22.41;62.50
19286;BME280;9776;50.798;6.430;2022-08-01T02:25:19;100265.69;;;22.40;62.61
19286;BME280;9776;50.798;6.430;2022-08-01T02:27:53;100263.25;;;22.39;62.60
19286;BME280;9776;50.798;6.430;2022-08-01T02:30:23;100265.56;;;22.35;62.78
19286;BME280;9776;50.798;6.430;2022-08-01T02:32:53;100276.53;;;22.34;62.85
19286;BME280;9776;50.798;6.430;2022-08-01T02:35:27;100268.00;;;22.37;62.70
19286;BME280;9776;50.798;6.430;2022-08-01T02:37:57;100267.56;;;22.40;62.63
19286;BME280;9776;50.798;6.430;2022-08-01T02:40:26;100271.16;;;22.34;62.94
19286;BME280;9776;50.798;6.430;2022-08-01T02:42:54;100261.00;;;22.36;62.83
19286;BME280;9776;50.798;6.430;2022-08-01T02:45:25;100263.81;;;22.41;62.77
19286;BME280;9776;50.798;6.430;2022-08-01T02:50:53;100262.50;;;22.32;62.92
19286;BME280;9776;50.798;6.430;2022-08-01T02:53:24;100263.78;;;22.29;62.83
19286;BME280;9776;50.798;6.430;2022-08-01T02:55:54;100261.09;;;22.29;62.93
19286;BME280;9776;50.798;6.430;2022-08-01T02:58:21;100267.66;;;22.33;63.00
19286;BME280;9776;50.798;6.430;2022-08-01T03:00:49;100258.53;;;22.34;62.92
19286;BME280;9776;50.798;6.430;2022-08-01T03:03:17;100261.00;;;22.36;62.70
19286;BME280;9776;50.798;6.430;2022-08-01T03:05:45;100263.91;;;22.34;62.77
19286;BME280;9776;50.798;6.430;2022-08-01T03:08:15;100266.75;;;22.39;62.86
19286;BME280;9776;50.798;6.430;2022-08-01T03:10:45;100266.75;;;22.39;62.58
19286;BME280;9776;50.798;6.430;2022-08-01T03:13:14;100282.06;;;22.39;62.69
19286;BME280;9776;50.798;6.430;2022-08-01T03:15:43;100274.13;;;22.44;62.54
19286;BME280;9776;50.798;6.430;2022-08-01T03:18:11;100276.00;;;22.43;62.41
19286;BME280;9776;50.798;6.430;2022-08-01T03:20:38;100275.03;;;22.38;62.71
19286;BME280;9776;50.798;6.430;2022-08-01T03:23:08;100275.88;;;22.38;62.85
19286;BME280;9776;50.798;6.430;2022-08-01T03:25:38;100276.31;;;22.35;62.89
19286;BME280;9776;50.798;6.430;2022-08-01T03:28:08;100277.97;;;22.36;62.85
19286;BME280;9776;50.798;6.430;2022-08-01T03:30:39;100274.22;;;22.37;62.71
19286;BME280;9776;50.798;6.430;2022-08-01T03:33:08;100272.94;;;22.40;62.80
19286;BME280;9776;50.798;6.430;2022-08-01T03:35:39;100281.63;;;22.42;62.79
19286;BME280;9776;50.798;6.430;2022-08-01T03:38:09;100282.91;;;22.39;62.80
19286;BME280;9776;50.798;6.430;2022-08-01T03:40:39;100281.25;;;22.38;62.93
19286;BME280;9776;50.798;6.430;2022-08-01T03:43:12;100282.91;;;22.39;62.90
19286;BME280;9776;50.798;6.430;2022-08-01T03:45:44;100277.97;;;22.36;62.82
19286;BME280;9776;50.798;6.430;2022-08-01T03:48:16;100279.00;;;22.35;62.96
19286;BME280;9776;50.798;6.430;2022-08-01T03:50:48;100289.75;;;22.35;62.99
19286;BME280;9776;50.798;6.430;2022-08-01T03:53:20;100277.59;;;22.33;63.06
19286;BME280;9776;50.798;6.430;2022-08-01T03:55:49;100273.03;;;22.33;63.10
19286;BME280;9776;50.798;6.430;2022-08-01T03:58:18;100280.50;;;22.31;63.16
19286;BME280;9776;50.798;6.430;2022-08-01T04:00:45;100278.72;;;22.25;63.32
19286;BME280;9776;50.798;6.430;2022-08-01T04:03:13;100280.59;;;22.25;63.41
19286;BME280;9776;50.798;6.430;2022-08-01T04:05:41;100280.81;;;22.23;63.42
19286;BME280;9776;50.798;6.430;2022-08-01T04:08:07;100282.47;;;22.24;63.48
19286;BME280;9776;50.798;6.430;2022-08-01T04:10:34;100274.16;;;22.26;63.41
19286;BME280;9776;50.798;6.430;2022-08-01T04:13:01;100274.41;;;22.24;63.42
19286;BME280;9776;50.798;6.430;2022-08-01T04:15:29;100272.16;;;22.21;63.33
19286;BME280;9776;50.798;6.430;2022-08-01T04:17:56;100268.28;;;22.17;63.59
19286;BME280;9776;50.798;6.430;2022-08-01T04:20:23;100271.78;;;22.18;63.59
19286;BME280;9776;50.798;6.430;2022-08-01T04:22:49;100274.25;;;22.19;63.66
19286;BME280;9776;50.798;6.430;2022-08-01T04:25:20;100274.25;;;22.19;63.63
19286;BME280;9776;50.798;6.430;2022-08-01T04:27:50;100277.53;;;22.21;63.63
19286;BME280;9776;50.798;6.430;2022-08-01T04:30:22;100280.69;;;22.18;63.59
19286;BME280;9776;50.798;6.430;2022-08-01T04:32:52;100288.94;;;22.17;63.72
19286;BME280;9776;50.798;6.430;2022-08-01T04:35:21;100279.28;;;22.16;63.74
19286;BME280;9776;50.798;6.430;2022-08-01T04:37:51;100294.13;;;22.18;63.68
19286;BME280;9776;50.798;6.430;2022-08-01T04:40:19;100300.53;;;22.17;63.92
19286;BME280;9776;50.798;6.430;2022-08-01T04:42:48;100299.34;;;22.13;63.81
19286;BME280;9776;50.798;6.430;2022-08-01T04:45:16;100297.72;;;22.12;63.73
19286;BME280;9776;50.798;6.430;2022-08-01T04:47:45;100302.25;;;22.12;63.81
19286;BME280;9776;50.798;6.430;2022-08-01T04:50:14;100310.13;;;22.13;63.79
19286;BME280;9776;50.798;6.430;2022-08-01T04:52:41;100315.25;;;22.15;63.84
19286;BME280;9776;50.798;6.430;2022-08-01T04:55:09;100316.66;;;22.17;63.94
19286;BME280;9776;50.798;6.430;2022-08-01T04:57:37;100315.03;;;22.16;63.75
19286;BME280;9776;50.798;6.430;2022-08-01T05:00:06;100313.38;;;22.15;63.84
19286;BME280;9776;50.798;6.430;2022-08-01T05:02:33;100314.44;;;22.14;63.97
19286;BME280;9776;50.798;6.430;2022-08-01T05:05:00;100313.97;;;22.17;63.90
19286;BME280;9776;50.798;6.430;2022-08-01T05:07:28;100311.53;;;22.16;63.92
19286;BME280;9776;50.798;6.430;2022-08-01T05:09:55;100311.75;;;22.14;63.94
19286;BME280;9776;50.798;6.430;2022-08-01T05:12:22;100312.94;;;22.18;63.96
19286;BME280;9776;50.798;6.430;2022-08-01T05:14:49;100311.28;;;22.17;63.87
19286;BME280;9776;50.798;6.430;2022-08-01T05:17:16;100315.78;;;22.23;63.79
19286;BME280;9776;50.798;6.430;2022-08-01T05:19:42;100312.25;;;22.23;63.75
19286;BME280;9776;50.798;6.430;2022-08-01T05:22:10;100315.56;;;22.25;63.84
19286;BME280;9776;50.798;6.430;2022-08-01T05:24:39;100317.63;;;22.23;64.00
19286;BME280;9776;50.798;6.430;2022-08-01T05:27:07;100322.66;;;22.19;63.97
19286;BME280;9776;50.798;6.430;2022-08-01T05:29:34;100323.09;;;22.16;64.14
19286;BME280;9776;50.798;6.430;2022-08-01T05:32:01;100328.25;;;22.18;64.01
19286;BME280;9776;50.798;6.430;2022-08-01T05:34:28;100327.22;;;22.19;64.18
19286;BME280;9776;50.798;6.430;2022-08-01T05:36:55;100329.66;;;22.20;64.23
19286;BME280;9776;50.798;6.430;2022-08-01T05:39:21;100327.09;;;22.25;64.04
19286;BME280;9776;50.798;6.430;2022-08-01T05:41:50;100343.03;;;22.27;64.09
19286;BME280;9776;50.798;6.430;2022-08-01T05:44:16;100334.72;;;22.28;63.95
19286;BME280;9776;50.798;6.430;2022-08-01T05:46:43;100343.03;;;22.27;64.01
19286;BME280;9776;50.798;6.430;2022-08-01T05:49:10;100338.69;;;22.26;64.19
19286;BME280;9776;50.798;6.430;2022-08-01T05:51:36;100336.06;;;22.37;64.06
19286;BME280;9776;50.798;6.430;2022-08-01T05:54:03;100342.06;;;22.39;63.97
19286;BME280;9776;50.798;6.430;2022-08-01T05:56:30;100335.03;;;22.38;63.87
19286;BME280;9776;50.798;6.430;2022-08-01T05:58:58;100334.13;;;22.44;63.73
19286;BME280;9776;50.798;6.430;2022-08-01T06:01:25;100336.50;;;22.52;63.58
19286;BME280;9776;50.798;6.430;2022-08-01T06:03:52;100338.41;;;22.63;63.22
19286;BME280;9776;50.798;6.430;2022-08-01T06:06:19;100338.59;;;22.69;63.42
19286;BME280;9776;50.798;6.430;2022-08-01T06:08:46;100341.72;;;22.66;63.24
19286;BME280;9776;50.798;6.430;2022-08-01T06:11:13;100344.41;;;22.66;63.50
19286;BME280;9776;50.798;6.430;2022-08-01T06:13:40;100345.91;;;22.61;63.40
19286;BME280;9776;50.798;6.430;2022-08-01T06:16:08;100342.19;;;22.63;63.37
19286;BME280;9776;50.798;6.430;2022-08-01T06:18:34;100336.19;;;22.60;63.35
19286;BME280;9776;50.798;6.430;2022-08-01T06:21:10;100334.78;;;22.58;63.40
19286;BME280;9776;50.798;6.430;2022-08-01T06:23:39;100341.44;;;22.55;63.32
19286;BME280;9776;50.798;6.430;2022-08-01T06:26:07;100344.56;;;22.52;63.51
19286;BME280;9776;50.798;6.430;2022-08-01T06:28:34;100338.16;;;22.53;63.55
19286;BME280;9776;50.798;6.430;2022-08-01T06:31:01;100331.38;;;22.51;63.68
19286;BME280;9776;50.798;6.430;2022-08-01T06:33:29;100338.00;;;22.48;63.83
19286;BME280;9776;50.798;6.430;2022-08-01T06:35:58;100335.22;;;22.55;63.64
19286;BME280;9776;50.798;6.430;2022-08-01T06:38:25;100336.63;;;22.57;63.61
19286;BME280;9776;50.798;6.430;2022-08-01T06:40:51;100335.00;;;22.56;63.50
19286;BME280;9776;50.798;6.430;2022-08-01T06:43:18;100345.91;;;22.61;63.55
19286;BME280;9776;50.798;6.430;2022-08-01T06:45:45;100352.88;;;22.69;63.56
19286;BME280;9776;50.798;6.430;2022-08-01T06:48:11;100349.50;;;22.74;63.28
19286;BME280;9776;50.798;6.430;2022-08-01T06:50:40;100354.88;;;22.74;63.33
19286;BME280;9776;50.798;6.430;2022-08-01T06:53:07;100343.44;;;22.78;63.48
19286;BME280;9776;50.798;6.430;2022-08-01T06:55:33;100356.34;;;22.88;63.27
19286;BME280;9776;50.798;6.430;2022-08-01T06:58:00;100354.25;;;22.90;63.30
19286;BME280;9776;50.798;6.430;2022-08-01T07:00:27;100354.25;;;22.90;63.23
19286;BME280;9776;50.798;6.430;2022-08-01T07:02:55;100356.13;;;23.01;63.02
19286;BME280;9776;50.798;6.430;2022-08-01T07:05:23;100357.34;;;23.05;62.92
19286;BME280;9776;50.798;6.430;2022-08-01T07:07:51;100362.25;;;23.08;62.82
19286;BME280;9776;50.798;6.430;2022-08-01T07:10:18;100357.56;;;23.15;62.66
19286;BME280;9776;50.798;6.430;2022-08-01T07:12:45;100353.50;;;23.24;62.38
19286;BME280;9776;50.798;6.430;2022-08-01T07:15:12;100357.50;;;23.33;62.10
19286;BME280;9776;50.798;6.430;2022-08-01T07:17:40;100352.06;;;23.40;61.78
19286;BME280;9776;50.798;6.430;2022-08-01T07:20:09;100354.63;;;23.46;61.70
19286;BME280;9776;50.798;6.430;2022-08-01T07:22:36;100353.22;;;23.55;61.39
19286;BME280;9776;50.798;6.430;2022-08-01T07:25:05;100357.22;;;23.64;61.23
19286;BME280;9776;50.798;6.430;2022-08-01T07:27:33;100359.69;;;23.66;61.29
19286;BME280;9776;50.798;6.430;2022-08-01T07:29:59;100354.31;;;23.66;61.25
19286;BME280;9776;50.798;6.430;2022-08-01T07:32:26;100364.16;;;23.84;61.16
19286;BME280;9776;50.798;6.430;2022-08-01T07:34:54;100357.94;;;23.95;60.76
19286;BME280;9776;50.798;6.430;2022-08-01T07:37:21;100364.81;;;24.02;60.40
19286;BME280;9776;50.798;6.430;2022-08-01T07:39:49;100361.78;;;24.10;60.24
19286;BME280;9776;50.798;6.430;2022-08-01T07:42:17;100367.06;;;24.17;59.77
19286;BME280;9776;50.798;6.430;2022-08-01T07:44:44;100359.78;;;24.29;59.52
19286;BME280;9776;50.798;6.430;2022-08-01T07:47:11;100362.44;;;24.41;59.14
19286;BME280;9776;50.798;6.430;2022-08-01T07:49:37;100362.28;;;24.59;58.38
19286;BME280;9776;50.798;6.430;2022-08-01T07:52:04;100360.31;;;24.82;57.75
19286;BME280;9776;50.798;6.430;2022-08-01T07:54:31;100360.38;;;24.99;57.03
19286;BME280;9776;50.798;6.430;2022-08-01T07:56:58;100360.91;;;25.13;56.81
19286;BME280;9776;50.798;6.430;2022-08-01T07:59:26;100362.91;;;25.51;55.69
19286;BME280;9776;50.798;6.430;2022-08-01T08:01:53;100367.28;;;25.90;54.63
19286;BME280;9776;50.798;6.430;2022-08-01T08:04:19;100362.66;;;26.45;53.20
19286;BME280;9776;50.798;6.430;2022-08-01T08:06:46;100363.38;;;27.11;51.48
19286;BME280;9776;50.798;6.430;2022-08-01T08:09:14;100366.88;;;27.07;51.49
19286;BME280;9776;50.798;6.430;2022-08-01T08:11:42;100367.53;;;26.70;52.29
19286;BME280;9776;50.798;6.430;2022-08-01T08:14:09;100360.88;;;26.56;53.01
19286;BME280;9776;50.798;6.430;2022-08-01T08:16:37;100372.28;;;27.07;51.90
19286;BME280;9776;50.798;6.430;2022-08-01T08:19:04;100375.97;;;26.95;51.80
19286;BME280;9776;50.798;6.430;2022-08-01T08:21:31;100375.34;;;26.88;52.39
19286;BME280;9776;50.798;6.430;2022-08-01T08:23:58;100371.22;;;26.81;52.75
19286;BME280;9776;50.798;6.430;2022-08-01T08:26:42;100374.03;;;26.91;52.53
19286;BME280;9776;50.798;6.430;2022-08-01T08:29:09;100377.56;;;26.91;52.04
19286;BME280;9776;50.798;6.430;2022-08-01T08:31:37;100376.91;;;26.84;52.22
19286;BME280;9776;50.798;6.430;2022-08-01T08:34:04;100381.53;;;26.84;51.84
19286;BME280;9776;50.798;6.430;2022-08-01T08:36:30;100374.06;;;26.96;51.71
19286;BME280;9776;50.798;6.430;2022-08-01T08:38:58;100384.34;;;26.94;51.61
19286;BME280;9776;50.798;6.430;2022-08-01T08:41:26;100374.78;;;26.86;51.52
19286;BME280;9776;50.798;6.430;2022-08-01T08:43:52;100376.13;;;26.62;52.10
19286;BME280;9776;50.798;6.430;2022-08-01T08:46:23;100370.88;;;26.56;52.45
19286;BME280;9776;50.798;6.430;2022-08-01T08:48:51;100376.38;;;26.82;51.66
19286;BME280;9776;50.798;6.430;2022-08-01T08:51:19;100379.50;;;27.54;49.96
19286;BME280;9776;50.798;6.430;2022-08-01T08:53:46;100379.41;;;28.75;47.42
19286;BME280;9776;50.798;6.430;2022-08-01T08:56:14;100372.72;;;29.89;44.78
19286;BME280;9776;50.798;6.430;2022-08-01T08:58:44;100375.56;;;31.02;42.85
19286;BME280;9776;50.798;6.430;2022-08-01T09:01:11;100376.16;;;32.42;40.18
19286;BME280;9776;50.798;6.430;2022-08-01T09:03:39;100370.81;;;33.82;37.54
19286;BME280;9776;50.798;6.430;2022-08-01T09:06:07;100372.19;;;34.25;36.89
19286;BME280;9776;50.798;6.430;2022-08-01T09:08:34;100362.84;;;33.66;37.71
19286;BME280;9776;50.798;6.430;2022-08-01T09:11:01;100376.50;;;32.60;39.75
19286;BME280;9776;50.798;6.430;2022-08-01T09:13:28;100372.94;;;31.20;41.87
19286;BME280;9776;50.798;6.430;2022-08-01T09:15:56;100371.13;;;30.57;42.85
19286;BME280;9776;50.798;6.430;2022-08-01T09:18:30;100377.88;;;29.75;44.24
19286;BME280;9776;50.798;6.430;2022-08-01T09:21:13;100385.72;;;29.01;45.63
19286;BME280;9776;50.798;6.430;2022-08-01T09:23:43;100370.41;;;28.69;46.17
19286;BME280;9776;50.798;6.430;2022-08-01T09:26:11;100385.25;;;28.42;46.84
19286;BME280;9776;50.798;6.430;2022-08-01T09:28:38;100394.97;;;28.38;46.68
19286;BME280;9776;50.798;6.430;2022-08-01T09:31:10;100380.94;;;28.56;46.15
19286;BME280;9776;50.798;6.430;2022-08-01T09:33:51;100379.53;;;29.81;43.41
19286;BME280;9776;50.798;6.430;2022-08-01T09:36:21;100387.75;;;32.11;39.02
19286;BME280;9776;50.798;6.430;2022-08-01T09:38:48;100386.53;;;33.06;37.38
19286;BME280;9776;50.798;6.430;2022-08-01T09:41:16;100382.06;;;34.75;34.67
19286;BME280;9776;50.798;6.430;2022-08-01T09:43:48;100388.03;;;35.27;33.46
19286;BME280;9776;50.798;6.430;2022-08-01T09:46:17;100380.09;;;35.48;33.41
19286;BME280;9776;50.798;6.430;2022-08-01T09:49:05;100383.63;;;34.54;34.53
19286;BME280;9776;50.798;6.430;2022-08-01T09:51:35;100382.34;;;33.46;36.25
19286;BME280;9776;50.798;6.430;2022-08-01T09:54:03;100385.44;;;32.41;38.34
19286;BME280;9776;50.798;6.430;2022-08-01T09:56:36;100388.69;;;31.67;39.78
19286;BME280;9776;50.798;6.430;2022-08-01T09:59:04;100396.66;;;31.25;40.33
19286;BME280;9776;50.798;6.430;2022-08-01T10:01:43;100384.09;;;30.80;40.98
19286;BME280;9776;50.798;6.430;2022-08-01T10:04:12;100390.06;;;30.87;40.86
19286;BME280;9776;50.798;6.430;2022-08-01T10:06:41;100387.94;;;30.79;41.30
19286;BME280;9776;50.798;6.430;2022-08-01T10:09:10;100389.19;;;32.03;39.03
19286;BME280;9776;50.798;6.430;2022-08-01T10:11:37;100388.41;;;32.69;37.80
19286;BME280;9776;50.798;6.430;2022-08-01T10:14:06;100384.84;;;31.97;39.22
19286;BME280;9776;50.798;6.430;2022-08-01T10:16:34;100378.47;;;31.54;39.49
19286;BME280;9776;50.798;6.430;2022-08-01T10:19:02;100389.00;;;31.27;40.38
19286;BME280;9776;50.798;6.430;2022-08-01T10:21:32;100388.13;;;30.92;41.00
19286;BME280;9776;50.798;6.430;2022-08-01T10:24:02;100392.69;;;30.48;41.66
19286;BME280;9776;50.798;6.430;2022-08-01T10:26:33;100390.41;;;29.91;42.40
19286;BME280;9776;50.798;6.430;2022-08-01T10:29:00;100394.75;;;29.57;43.32
19286;BME280;9776;50.798;6.430;2022-08-01T10:31:28;100398.31;;;29.57;43.06
19286;BME280;9776;50.798;6.430;2022-08-01T10:33:58;100396.38;;;29.53;42.84
19286;BME280;9776;50.798;6.430;2022-08-01T10:36:27;100406.19;;;29.59;42.66
19286;BME280;9776;50.798;6.430;2022-08-01T10:38:54;100399.66;;;29.75;42.55
19286;BME280;9776;50.798;6.430;2022-08-01T10:41:24;100397.47;;;29.97;42.32
19286;BME280;9776;50.798;6.430;2022-08-01T10:43:52;100398.28;;;29.98;42.21
19286;BME280;9776;50.798;6.430;2022-08-01T10:46:19;100387.94;;;29.85;42.17
19286;BME280;9776;50.798;6.430;2022-08-01T10:48:55;100394.22;;;29.95;41.77
19286;BME280;9776;50.798;6.430;2022-08-01T10:51:23;100391.53;;;30.69;40.98
19286;BME280;9776;50.798;6.430;2022-08-01T10:53:52;100390.09;;;30.77;40.74
19286;BME280;9776;50.798;6.430;2022-08-01T10:56:20;100387.03;;;30.88;40.57
19286;BME280;9776;50.798;6.430;2022-08-01T10:58:48;100389.13;;;31.51;39.06
19286;BME280;9776;50.798;6.430;2022-08-01T11:01:20;100384.22;;;33.32;35.89
19286;BME280;9776;50.798;6.430;2022-08-01T11:04:05;100379.94;;;33.07;36.07
19286;BME280;9776;50.798;6.430;2022-08-01T11:06:40;100378.66;;;31.91;37.83
19286;BME280;9776;50.798;6.430;2022-08-01T11:09:24;100389.00;;;31.94;37.68
19286;BME280;9776;50.798;6.430;2022-08-01T11:12:01;100378.31;;;32.88;36.10
19286;BME280;9776;50.798;6.430;2022-08-01T11:14:32;100379.84;;;32.94;36.15
19286;BME280;9776;50.798;6.430;2022-08-01T11:17:30;100370.25;;;32.78;36.16
19286;BME280;9776;50.798;6.430;2022-08-01T11:20:05;100372.84;;;33.90;34.04
19286;BME280;9776;50.798;6.430;2022-08-01T11:26:14;100378.41;;;31.25;37.93
19286;BME280;9776;50.798;6.430;2022-08-01T11:28:43;100383.34;;;30.69;38.73
19286;BME280;9776;50.798;6.430;2022-08-01T11:31:31;100373.22;;;30.06;39.46
19286;BME280;9776;50.798;6.430;2022-08-01T11:33:59;100368.97;;;30.59;38.32
19286;BME280;9776;50.798;6.430;2022-08-01T11:36:26;100369.78;;;31.42;36.83
19286;BME280;9776;50.798;6.430;2022-08-01T11:39:14;100372.25;;;32.06;35.18
19286;BME280;9776;50.798;6.430;2022-08-01T11:41:42;100359.31;;;33.80;32.74
19286;BME280;9776;50.798;6.430;2022-08-01T11:44:11;100362.84;;;35.25;30.61
19286;BME280;9776;50.798;6.430;2022-08-01T11:47:04;100366.75;;;35.10;30.33
19286;BME280;9776;50.798;6.430;2022-08-01T11:49:43;100365.38;;;33.63;31.83
19286;BME280;9776;50.798;6.430;2022-08-01T11:52:17;100367.22;;;32.61;33.31
19286;BME280;9776;50.798;6.430;2022-08-01T11:54:46;100362.72;;;31.98;34.27
19286;BME280;9776;50.798;6.430;2022-08-01T11:57:15;100363.94;;;31.87;33.98
19286;BME280;9776;50.798;6.430;2022-08-01T11:59:45;100368.53;;;31.92;33.87
19286;BME280;9776;50.798;6.430;2022-08-01T12:02:20;100366.66;;;31.59;34.11
19286;BME280;9776;50.798;6.430;2022-08-01T12:04:49;100365.06;;;31.19;34.52
19286;BME280;9776;50.798;6.430;2022-08-01T12:07:17;100361.72;;;30.88;34.68
19286;BME280;9776;50.798;6.430;2022-08-01T12:09:45;100365.97;;;30.55;34.88
19286;BME280;9776;50.798;6.430;2022-08-01T12:12:15;100369.06;;;30.39;35.43
19286;BME280;9776;50.798;6.430;2022-08-01T12:14:44;100365.22;;;30.34;35.44
19286;BME280;9776;50.798;6.430;2022-08-01T12:17:11;100357.50;;;30.62;34.86
19286;BME280;9776;50.798;6.430;2022-08-01T12:19:40;100361.41;;;31.00;33.81
19286;BME280;9776;50.798;6.430;2022-08-01T12:22:12;100357.53;;;31.73;32.78
19286;BME280;9776;50.798;6.430;2022-08-01T12:24:41;100369.22;;;33.30;30.58
19286;BME280;9776;50.798;6.430;2022-08-01T12:27:09;100359.72;;;33.41;30.36
19286;BME280;9776;50.798;6.430;2022-08-01T12:29:39;100361.97;;;33.01;30.69
19286;BME280;9776;50.798;6.430;2022-08-01T12:32:22;100363.19;;;33.46;30.08
19286;BME280;9776;50.798;6.430;2022-08-01T12:34:51;100361.22;;;33.33;30.24
19286;BME280;9776;50.798;6.430;2022-08-01T12:37:18;100361.47;;;32.81;30.73
19286;BME280;9776;50.798;6.430;2022-08-01T12:39:46;100368.16;;;32.27;31.02
19286;BME280;9776;50.798;6.430;2022-08-01T12:42:13;100353.53;;;31.66;31.76
19286;BME280;9776;50.798;6.430;2022-08-01T12:44:42;100350.09;;;31.50;31.84
19286;BME280;9776;50.798;6.430;2022-08-01T12:47:10;100356.84;;;31.24;32.25
19286;BME280;9776;50.798;6.430;2022-08-01T12:49:37;100355.41;;;30.98;32.91
19286;BME280;9776;50.798;6.430;2022-08-01T12:52:06;100357.97;;;30.74;33.45
19286;BME280;9776;50.798;6.430;2022-08-01T12:55:04;100356.53;;;30.38;34.03
19286;BME280;9776;50.798;6.430;2022-08-01T12:57:32;100356.56;;;30.17;34.67
19286;BME280;9776;50.798;6.430;2022-08-01T13:00:10;100358.28;;;29.93;34.57
19286;BME280;9776;50.798;6.430;2022-08-01T13:02:38;100350.16;;;29.83;34.59
19286;BME280;9776;50.798;6.430;2022-08-01T13:05:06;100355.53;;;30.03;34.40
19286;BME280;9776;50.798;6.430;2022-08-01T13:07:44;100353.81;;;30.27;33.81
19286;BME280;9776;50.798;6.430;2022-08-01T13:10:12;100355.72;;;30.22;33.92
19286;BME280;9776;50.798;6.430;2022-08-01T13:12:41;100350.34;;;30.12;33.94
19286;BME280;9776;50.798;6.430;2022-08-01T13:15:18;100347.69;;;29.81;34.28
19286;BME280;9776;50.798;6.430;2022-08-01T13:17:45;100351.25;;;29.52;34.85